createdAt,value
2018-07-06T00:01:33.679Z,81.02
2018-07-06T00:04:13.109Z,81.04
2018-07-06T00:06:52.746Z,80.83
2018-07-06T00:09:32.146Z,81.04
2018-07-06T00:12:11.431Z,81.26
2018-07-06T00:14:50.907Z,80.76
2018-07-06T00:17:30.372Z,81.22
2018-07-06T00:20:09.662Z,80.85
2018-07-06T00:22:49.026Z,80.93
2018-07-06T00:25:28.428Z,80.51
2018-07-06T00:28:07.767Z,81.20
2018-07-06T00:30:47.206Z,80.67
2018-07-06T00:33:26.490Z,80.79
2018-07-06T00:36:05.766Z,81.22
2018-07-06T00:38:45.423Z,80.69
2018-07-06T00:41:24.848Z,81.13
2018-07-06T00:44:04.466Z,80.43
2018-07-06T00:46:44.023Z,80.56
2018-07-06T00:49:23.675Z,80.26
2018-07-06T00:52:03.107Z,80.64
2018-07-06T00:54:42.586Z,80.37
2018-07-06T00:57:21.858Z,79.98
2018-07-06T01:00:01.278Z,79.69
2018-07-06T01:02:40.633Z,80.73
2018-07-06T01:05:19.893Z,81.34
2018-07-06T01:07:59.343Z,81.30
2018-07-06T01:10:38.807Z,80.33
2018-07-06T01:13:18.129Z,80.73
2018-07-06T01:15:57.648Z,81.45
2018-07-06T01:18:36.912Z,81.13
2018-07-06T01:21:16.363Z,81.81
2018-07-06T01:23:55.735Z,81.18
2018-07-06T01:26:35.086Z,81.29
2018-07-06T01:29:14.701Z,80.83
2018-07-06T01:31:54.053Z,81.06
2018-07-06T01:34:33.375Z,80.96
2018-07-06T01:37:12.691Z,80.71
2018-07-06T01:39:51.999Z,81.77
2018-07-06T01:42:31.221Z,81.88
2018-07-06T01:45:10.614Z,81.61
2018-07-06T01:47:50.235Z,82.29
2018-07-06T01:50:29.484Z,82.29
2018-07-06T01:53:08.860Z,82.65
2018-07-06T01:55:48.243Z,82.41
2018-07-06T01:58:27.635Z,82.66
2018-07-06T02:01:07.015Z,82.35
2018-07-06T02:03:46.415Z,82.39
2018-07-06T02:06:25.735Z,81.94
2018-07-06T02:09:05.274Z,82.27
2018-07-06T02:11:44.934Z,82.57
2018-07-06T02:14:24.489Z,82.46
2018-07-06T02:17:04.074Z,82.70
2018-07-06T02:19:43.539Z,82.45
2018-07-06T02:22:22.889Z,82.59
2018-07-06T02:25:02.205Z,83.61
2018-07-06T02:27:42.628Z,83.04
2018-07-06T02:30:22.141Z,83.19
2018-07-06T02:33:02.185Z,82.97
2018-07-06T02:35:41.774Z,82.90
2018-07-06T02:38:21.218Z,83.04
2018-07-06T02:41:00.500Z,83.43
2018-07-06T02:43:39.930Z,83.47
2018-07-06T02:46:19.210Z,83.30
2018-07-06T02:48:58.525Z,83.52
2018-07-06T02:51:37.788Z,83.25
2018-07-06T02:54:17.463Z,83.26
2018-07-06T02:56:56.815Z,83.43
2018-07-06T02:59:36.162Z,83.33
2018-07-06T03:02:15.495Z,83.52
2018-07-06T03:04:54.886Z,83.97
2018-07-06T03:07:34.538Z,83.59
2018-07-06T03:10:14.115Z,83.80
2018-07-06T03:12:53.523Z,83.83
2018-07-06T03:15:32.996Z,84.44
2018-07-06T03:18:12.342Z,83.92
2018-07-06T03:20:51.659Z,84.28
2018-07-06T03:23:31.247Z,85.07
2018-07-06T03:26:10.727Z,84.68
2018-07-06T03:28:50.513Z,85.25
2018-07-06T03:31:29.625Z,85.02
2018-07-06T03:34:08.981Z,85.37
2018-07-06T03:36:48.355Z,85.34
2018-07-06T03:39:27.754Z,84.90
2018-07-06T03:42:07.246Z,84.93
2018-07-06T03:44:46.615Z,84.68
2018-07-06T03:47:26.159Z,85.05
2018-07-06T03:50:05.516Z,84.37
2018-07-06T03:52:44.843Z,84.77
2018-07-06T03:55:24.175Z,84.81
2018-07-06T03:58:04.458Z,84.46
2018-07-06T04:00:43.871Z,84.12
2018-07-06T04:03:23.113Z,84.47
2018-07-06T04:06:02.543Z,84.45
2018-07-06T04:08:43.095Z,84.58
2018-07-06T04:11:22.603Z,84.51
2018-07-06T04:14:01.972Z,84.10
2018-07-06T04:16:41.180Z,84.36
2018-07-06T04:19:20.470Z,84.39
2018-07-06T04:21:59.691Z,84.65
2018-07-06T04:24:39.047Z,84.40
2018-07-06T04:27:18.439Z,84.71
2018-07-06T04:29:57.835Z,84.48
2018-07-06T04:32:37.196Z,84.45
2018-07-06T04:35:16.584Z,84.62
2018-07-06T04:37:55.937Z,84.79
2018-07-06T04:40:35.334Z,83.77
2018-07-06T04:43:14.944Z,83.90
2018-07-06T04:45:54.406Z,83.94
2018-07-06T04:48:33.705Z,83.94
2018-07-06T04:51:13.243Z,83.45
2018-07-06T04:53:52.671Z,83.69
2018-07-06T04:56:31.899Z,83.47
2018-07-06T04:59:11.310Z,83.45
2018-07-06T05:01:50.648Z,83.37
2018-07-06T05:04:30.032Z,83.83
2018-07-06T05:07:09.603Z,83.43
2018-07-06T05:09:48.999Z,83.19
2018-07-06T05:12:28.459Z,82.77
2018-07-06T05:15:07.718Z,82.37
2018-07-06T05:17:46.960Z,82.94
2018-07-06T05:20:26.343Z,82.98
2018-07-06T05:23:05.522Z,82.63
2018-07-06T05:25:44.857Z,82.63
2018-07-06T05:28:24.454Z,82.21
2018-07-06T05:31:03.872Z,82.12
2018-07-06T05:33:43.402Z,82.26
2018-07-06T05:36:22.843Z,81.91
2018-07-06T05:39:02.550Z,81.42
2018-07-06T05:41:41.855Z,81.94
2018-07-06T05:44:21.206Z,81.93
2018-07-06T05:47:00.518Z,82.40
2018-07-06T05:49:39.774Z,82.50
2018-07-06T05:52:19.114Z,82.31
2018-07-06T05:54:58.350Z,82.43
2018-07-06T05:57:37.590Z,82.71
2018-07-06T06:00:16.800Z,82.24
2018-07-06T06:02:56.055Z,82.21
2018-07-06T06:05:35.654Z,81.66
2018-07-06T06:08:08.731Z,80.90
2018-07-06T06:10:36.343Z,80.54
2018-07-06T06:13:04.100Z,80.89
2018-07-06T06:15:31.822Z,80.07
2018-07-06T06:17:59.534Z,80.24
2018-07-06T06:20:27.275Z,79.64
2018-07-06T06:22:54.993Z,79.33
2018-07-06T06:25:22.726Z,78.62
2018-07-06T06:27:50.435Z,78.53
2018-07-06T06:30:18.135Z,78.06
2018-07-06T06:32:45.869Z,79.33
2018-07-06T06:35:13.618Z,79.01
2018-07-06T06:37:41.495Z,78.86
2018-07-06T06:40:09.198Z,79.05
2018-07-06T06:42:36.962Z,79.23
2018-07-06T06:45:04.679Z,79.28
2018-07-06T06:47:32.490Z,79.99
2018-07-06T06:50:00.230Z,79.92
2018-07-06T06:52:28.033Z,79.83
2018-07-06T06:54:55.770Z,79.98
2018-07-06T06:57:23.482Z,79.53
2018-07-06T06:59:51.251Z,79.91
2018-07-06T07:02:19.027Z,79.87
2018-07-06T07:04:46.781Z,79.73
2018-07-06T07:07:14.545Z,79.57
2018-07-06T07:09:42.318Z,78.50
2018-07-06T07:12:10.061Z,77.94
2018-07-06T07:14:37.840Z,77.09
2018-07-06T07:17:05.573Z,76.56
2018-07-06T07:19:33.369Z,77.30
2018-07-06T07:22:01.132Z,77.40
2018-07-06T07:24:28.916Z,77.79
2018-07-06T07:26:57.918Z,77.95
2018-07-06T07:29:25.799Z,78.04
2018-07-06T07:31:53.559Z,78.17
2018-07-06T07:34:21.335Z,78.71
2018-07-06T07:36:49.149Z,78.16
2018-07-06T07:39:16.926Z,79.16
2018-07-06T07:41:44.653Z,79.23
2018-07-06T07:44:12.450Z,79.17
2018-07-06T07:46:40.326Z,80.15
2018-07-06T07:49:08.083Z,79.65
2018-07-06T07:51:54.476Z,80.21
2018-07-06T07:54:32.730Z,79.68
2018-07-06T07:57:01.571Z,79.67
2018-07-06T07:59:30.519Z,80.39
2018-07-06T08:01:59.227Z,80.86
2018-07-06T08:04:27.051Z,80.68
2018-07-06T08:06:54.839Z,80.60
2018-07-06T08:09:23.230Z,80.63
2018-07-06T08:11:56.459Z,80.75
2018-07-06T08:14:24.297Z,80.91
2018-07-06T08:16:51.977Z,81.14
2018-07-06T08:19:20.568Z,80.33
2018-07-06T08:21:48.312Z,79.87
2018-07-06T08:24:16.694Z,79.68
2018-07-06T08:26:44.379Z,79.98
2018-07-06T08:29:12.106Z,79.95
2018-07-06T08:31:40.886Z,80.05
2018-07-06T08:34:14.099Z,80.03
2018-07-06T08:37:48.103Z,80.57
2018-07-06T08:40:16.206Z,80.35
2018-07-06T08:42:46.255Z,81.58
2018-07-06T08:45:14.034Z,80.82
2018-07-06T08:47:42.338Z,81.89
2018-07-06T08:50:10.481Z,82.33
2018-07-06T08:52:39.228Z,82.30
2018-07-06T08:55:07.031Z,81.98
2018-07-06T08:57:35.579Z,82.35
2018-07-06T09:00:03.337Z,82.67
2018-07-06T09:02:31.054Z,82.55
2018-07-06T09:04:59.977Z,82.13
2018-07-06T09:07:27.834Z,81.70
2018-07-06T09:09:56.302Z,80.70
2018-07-06T09:12:24.102Z,80.20
2018-07-06T09:14:51.935Z,80.49
2018-07-06T09:17:20.113Z,79.36
2018-07-06T09:19:48.676Z,78.92
2018-07-06T09:22:18.378Z,79.34
2018-07-06T09:24:47.100Z,80.48
2018-07-06T09:27:14.903Z,80.55
2018-07-06T09:29:42.707Z,82.01
2018-07-06T09:32:10.540Z,81.97
2018-07-06T09:34:38.551Z,83.13
2018-07-06T09:37:06.384Z,83.66
2018-07-06T09:39:34.208Z,84.23
2018-07-06T09:42:03.025Z,82.91
2018-07-06T09:44:30.807Z,84.08
2018-07-06T09:46:58.555Z,83.06
2018-07-06T09:49:26.369Z,82.30
2018-07-06T09:51:54.223Z,83.01
2018-07-06T09:54:21.970Z,83.94
2018-07-06T09:56:49.718Z,84.10
2018-07-06T09:59:17.532Z,83.47
2018-07-06T10:01:45.339Z,81.85
2018-07-06T10:04:13.109Z,81.22
2018-07-06T10:06:40.865Z,81.45
2018-07-06T10:09:09.200Z,82.17
2018-07-06T10:11:37.083Z,82.26
2018-07-06T10:14:04.863Z,81.63
2018-07-06T10:16:32.645Z,81.63
2018-07-06T10:19:00.427Z,81.34
2018-07-06T10:21:28.283Z,81.42
2018-07-06T10:23:56.040Z,82.10
2018-07-06T10:26:23.930Z,82.21
2018-07-06T10:28:54.167Z,81.59
2018-07-06T10:32:26.343Z,81.74
2018-07-06T10:34:54.568Z,80.11
2018-07-06T10:37:22.628Z,80.08
2018-07-06T10:39:50.955Z,78.97
2018-07-06T10:42:18.552Z,78.95
2018-07-06T10:44:46.289Z,77.56
2018-07-06T10:47:14.042Z,76.65
2018-07-06T10:49:41.955Z,75.71
2018-07-06T10:52:10.390Z,75.29
2018-07-06T10:54:39.112Z,73.85
2018-07-06T10:57:07.485Z,73.59
2018-07-06T10:59:35.263Z,74.50
2018-07-06T11:02:03.131Z,75.01
2018-07-06T11:04:31.079Z,75.03
2018-07-06T11:06:59.475Z,75.82
2018-07-06T11:09:27.259Z,76.01
2018-07-06T11:11:55.112Z,76.94
2018-07-06T11:14:22.844Z,76.03
2018-07-06T11:16:50.978Z,76.51
2018-07-06T11:19:18.703Z,77.36
2018-07-06T11:21:46.511Z,77.84
2018-07-06T11:24:14.632Z,78.79
2018-07-06T11:26:42.344Z,78.36
2018-07-06T11:29:10.123Z,79.49
2018-07-06T11:31:38.119Z,79.93
2018-07-06T11:34:06.326Z,77.82
2018-07-06T11:36:34.106Z,77.12
2018-07-06T11:39:01.994Z,76.65
2018-07-06T11:41:29.907Z,73.52
2018-07-06T11:43:57.648Z,72.50
2018-07-06T11:46:25.452Z,68.62
2018-07-06T11:48:53.142Z,67.25
2018-07-06T11:51:20.883Z,67.71
2018-07-06T11:53:48.686Z,64.50
2018-07-06T11:56:16.439Z,63.99
2018-07-06T11:58:45.056Z,65.88
2018-07-06T12:01:13.031Z,66.86
2018-07-06T12:03:40.991Z,67.23
2018-07-06T12:06:08.748Z,67.94
2018-07-06T12:08:36.479Z,64.93
2018-07-06T12:11:04.830Z,66.98
2018-07-06T12:13:32.618Z,67.34
2018-07-06T12:16:00.672Z,68.64
2018-07-06T12:18:28.875Z,67.95
2018-07-06T12:20:56.661Z,66.40
2018-07-06T12:23:24.644Z,65.93
2018-07-06T12:25:52.434Z,66.16
2018-07-06T12:28:20.208Z,65.92
2018-07-06T12:30:48.014Z,66.25
2018-07-06T12:33:15.806Z,65.01
2018-07-06T12:35:43.707Z,65.40
2018-07-06T12:38:11.442Z,65.76
2018-07-06T12:40:39.197Z,62.40
2018-07-06T12:43:06.946Z,62.87
2018-07-06T12:45:34.999Z,60.38
2018-07-06T12:48:03.355Z,61.86
2018-07-06T12:50:31.473Z,59.89
2018-07-06T12:52:59.291Z,61.41
2018-07-06T12:55:27.051Z,59.93
2018-07-06T12:57:54.842Z,56.45
2018-07-06T13:00:22.626Z,59.28
2018-07-06T13:02:50.578Z,60.76
2018-07-06T13:05:18.361Z,62.72
2018-07-06T13:07:46.550Z,62.43
2018-07-06T13:10:14.303Z,63.28
2018-07-06T13:12:42.100Z,64.98
2018-07-06T13:15:09.854Z,67.45
2018-07-06T13:17:37.890Z,67.54
2018-07-06T13:20:05.688Z,68.27
2018-07-06T13:22:33.408Z,69.85
2018-07-06T13:25:01.293Z,69.74
2018-07-06T13:27:29.175Z,71.30
2018-07-06T13:29:56.987Z,72.43
2018-07-06T13:32:24.704Z,72.89
2018-07-06T13:34:52.411Z,71.44
2018-07-06T13:37:20.139Z,74.00
2018-07-06T13:39:47.932Z,75.30
2018-07-06T13:42:15.691Z,75.59
2018-07-06T13:44:43.390Z,74.79
2018-07-06T13:47:11.166Z,74.70
2018-07-06T13:49:38.919Z,75.20
2018-07-06T13:52:06.667Z,74.07
2018-07-06T13:54:34.540Z,70.71
2018-07-06T13:57:02.285Z,68.84
2018-07-06T13:59:30.135Z,68.69
2018-07-06T14:01:58.676Z,68.59
2018-07-06T14:04:26.371Z,68.89
2018-07-06T14:06:54.139Z,69.94
2018-07-06T14:09:21.900Z,70.55
2018-07-06T14:11:49.865Z,68.01
2018-07-06T14:14:17.691Z,66.26
2018-07-06T14:16:45.479Z,68.69
2018-07-06T14:19:13.288Z,66.15
2018-07-06T14:21:41.046Z,69.38
2018-07-06T14:24:08.762Z,72.83
2018-07-06T14:26:36.598Z,70.61
2018-07-06T14:29:04.402Z,71.18
2018-07-06T14:31:32.110Z,72.42
2018-07-06T14:33:59.921Z,71.67
2018-07-06T14:36:27.859Z,72.05
2018-07-06T14:38:55.639Z,69.58
2018-07-06T14:41:23.376Z,68.01
2018-07-06T14:43:51.152Z,71.16
2018-07-06T14:46:18.884Z,68.88
2018-07-06T14:48:46.799Z,71.01
2018-07-06T14:51:14.519Z,72.04
2018-07-06T14:53:42.284Z,71.80
2018-07-06T14:56:10.932Z,74.38
2018-07-06T14:58:38.666Z,73.71
2018-07-06T15:01:06.508Z,73.91
2018-07-06T15:03:34.872Z,74.33
2018-07-06T15:06:02.590Z,69.98
2018-07-06T15:08:30.311Z,70.49
2018-07-06T15:10:58.051Z,71.59
2018-07-06T15:13:25.865Z,72.21
2018-07-06T15:15:53.645Z,73.57
2018-07-06T15:18:21.442Z,74.70
2018-07-06T15:20:49.152Z,75.79
2018-07-06T15:23:16.939Z,76.17
2018-07-06T15:25:44.643Z,75.35
2018-07-06T15:28:12.354Z,74.18
2018-07-06T15:30:40.084Z,73.88
2018-07-06T15:33:07.855Z,73.19
2018-07-06T15:35:35.584Z,73.09
2018-07-06T15:38:03.318Z,73.29
2018-07-06T15:40:31.075Z,71.91
2018-07-06T15:42:58.800Z,68.93
2018-07-06T15:45:26.540Z,69.34
2018-07-06T15:47:54.247Z,68.35
2018-07-06T15:50:22.334Z,67.06
2018-07-06T15:52:50.192Z,67.04
2018-07-06T15:55:17.920Z,64.61
2018-07-06T15:57:45.637Z,67.54
2018-07-06T16:00:13.410Z,68.77
2018-07-06T16:02:41.180Z,68.13
2018-07-06T16:05:08.879Z,66.33
2018-07-06T16:07:36.736Z,66.61
2018-07-06T16:10:04.434Z,64.04
2018-07-06T16:12:32.336Z,63.22
2018-07-06T16:15:00.101Z,61.95
2018-07-06T16:17:27.855Z,63.23
2018-07-06T16:19:55.704Z,62.50
2018-07-06T16:22:23.459Z,61.58
2018-07-06T16:24:51.277Z,62.09
2018-07-06T16:27:18.937Z,58.13
2018-07-06T16:29:46.649Z,59.82
2018-07-06T16:32:14.378Z,58.99
2018-07-06T16:34:42.146Z,60.77
2018-07-06T16:37:09.910Z,60.00
2018-07-06T16:39:37.636Z,61.02
2018-07-06T16:42:05.930Z,59.10
2018-07-06T16:44:33.718Z,59.99
2018-07-06T16:47:01.525Z,58.92
2018-07-06T16:49:29.248Z,58.27
2018-07-06T16:51:56.998Z,58.28
2018-07-06T16:54:24.715Z,58.83
2018-07-06T16:56:52.426Z,58.92
2018-07-06T16:59:20.197Z,62.52
2018-07-06T17:01:47.889Z,63.43
2018-07-06T17:04:15.609Z,64.53
2018-07-06T17:06:43.403Z,63.84
2018-07-06T17:09:11.172Z,63.58
2018-07-06T17:11:38.943Z,63.74
2018-07-06T17:14:06.811Z,63.32
2018-07-06T17:16:34.570Z,63.64
2018-07-06T17:19:02.433Z,62.27
2018-07-06T17:21:30.217Z,62.66
2018-07-06T17:23:57.981Z,64.06
2018-07-06T17:26:25.742Z,64.50
2018-07-06T17:28:53.524Z,63.84
2018-07-06T17:31:21.312Z,64.62
2018-07-06T17:33:49.039Z,65.69
2018-07-06T17:36:16.787Z,66.32
2018-07-06T17:38:44.497Z,66.62
2018-07-06T17:41:12.256Z,66.74
2018-07-06T17:43:40.850Z,67.13
2018-07-06T17:46:08.617Z,67.60
2018-07-06T17:48:36.372Z,67.29
2018-07-06T17:51:04.127Z,67.60
2018-07-06T17:53:31.842Z,67.88
2018-07-06T17:55:59.623Z,68.47
2018-07-06T17:58:27.372Z,68.10
2018-07-06T18:00:55.091Z,68.28
2018-07-06T18:03:22.787Z,68.51
2018-07-06T18:05:50.544Z,68.32
2018-07-06T18:08:18.256Z,67.63
2018-07-06T18:10:46.002Z,67.57
2018-07-06T18:13:13.774Z,67.98
2018-07-06T18:15:41.582Z,68.50
2018-07-06T18:18:09.678Z,69.34
2018-07-06T18:20:37.406Z,68.95
2018-07-06T18:23:05.282Z,68.84
2018-07-06T18:25:33.070Z,69.22
2018-07-06T18:28:00.856Z,68.83
2018-07-06T18:30:28.602Z,69.61
2018-07-06T18:32:56.349Z,70.38
2018-07-06T18:35:24.110Z,70.55
2018-07-06T18:37:51.951Z,70.32
2018-07-06T18:40:19.693Z,70.49
2018-07-06T18:42:47.482Z,70.98
2018-07-06T18:45:15.245Z,71.78
2018-07-06T18:47:42.971Z,71.85
2018-07-06T18:50:10.967Z,72.08
2018-07-06T18:52:38.684Z,73.20
2018-07-06T18:55:06.496Z,73.54
2018-07-06T18:57:34.379Z,65.87
2018-07-06T19:00:02.105Z,67.39
2018-07-06T19:02:29.899Z,64.16
2018-07-06T19:04:57.622Z,63.01
2018-07-06T19:07:25.342Z,62.58
2018-07-06T19:09:53.104Z,62.05
2018-07-06T19:12:20.830Z,64.36
2018-07-06T19:14:48.603Z,65.28
2018-07-06T19:17:16.324Z,64.71
2018-07-06T19:19:44.115Z,63.97
2018-07-06T19:22:11.817Z,66.96
2018-07-06T19:24:39.563Z,66.28
2018-07-06T19:27:07.797Z,63.84
2018-07-06T19:29:35.563Z,63.11
2018-07-06T19:32:03.354Z,64.73
2018-07-06T19:34:31.470Z,67.01
2018-07-06T19:36:59.191Z,66.88
2018-07-06T19:39:26.919Z,67.43
2018-07-06T19:41:54.668Z,68.59
2018-07-06T19:44:22.413Z,69.81
2018-07-06T19:46:50.130Z,70.49
2018-07-06T19:49:17.929Z,70.55
2018-07-06T19:51:45.698Z,70.91
2018-07-06T19:54:13.514Z,71.32
2018-07-06T19:56:41.277Z,71.61
2018-07-06T19:59:08.996Z,71.29
2018-07-06T20:01:36.919Z,71.05
2018-07-06T20:04:04.636Z,71.02
2018-07-06T20:06:32.578Z,71.75
2018-07-06T20:09:00.361Z,72.47
2018-07-06T20:11:28.088Z,73.06
2018-07-06T20:13:55.976Z,72.45
2018-07-06T20:16:23.692Z,73.32
2018-07-06T20:18:51.428Z,73.44
2018-07-06T20:21:19.226Z,73.32
2018-07-06T20:23:47.022Z,73.99
2018-07-06T20:26:14.732Z,74.67
2018-07-06T20:28:42.496Z,74.46
2018-07-06T20:31:10.217Z,74.05
2018-07-06T20:33:37.962Z,74.07
2018-07-06T20:36:05.762Z,74.94
2018-07-06T20:38:33.507Z,75.29
2018-07-06T20:41:01.330Z,75.85
2018-07-06T20:43:29.115Z,76.37
2018-07-06T20:45:56.836Z,76.54
2018-07-06T20:48:24.602Z,76.76
2018-07-06T20:50:52.407Z,77.79
2018-07-06T20:53:20.232Z,78.25
2018-07-06T20:55:47.991Z,78.74
2018-07-06T20:58:15.715Z,79.37
2018-07-06T21:00:43.458Z,79.63
2018-07-06T21:03:11.233Z,79.24
2018-07-06T21:05:38.992Z,77.01
2018-07-06T21:08:06.779Z,76.84
2018-07-06T21:10:34.640Z,77.14
2018-07-06T21:13:02.323Z,78.13
2018-07-06T21:15:30.144Z,77.53
2018-07-06T21:17:57.859Z,77.74
2018-07-06T21:20:25.703Z,78.60
2018-07-06T21:22:53.398Z,78.68
2018-07-06T21:25:21.402Z,79.22
2018-07-06T21:27:49.196Z,78.94
2018-07-06T21:30:16.939Z,78.54
2018-07-06T21:32:44.691Z,78.80
2018-07-06T21:35:12.530Z,79.75
2018-07-06T21:37:40.280Z,79.37
2018-07-06T21:40:08.087Z,79.06
2018-07-06T21:42:35.792Z,79.94
2018-07-06T21:45:03.562Z,81.05
2018-07-06T21:47:31.288Z,80.99
2018-07-06T21:49:58.996Z,81.35
2018-07-06T21:52:26.728Z,81.47
2018-07-06T21:54:54.430Z,81.45
2018-07-06T21:57:22.178Z,81.92
2018-07-06T21:59:49.894Z,82.20
2018-07-06T22:02:17.667Z,82.71
2018-07-06T22:04:46.527Z,82.68
2018-07-06T22:07:15.113Z,82.13
2018-07-06T22:09:43.091Z,81.84
2018-07-06T22:12:11.233Z,81.89
2018-07-06T22:14:39.510Z,81.96
2018-07-06T22:17:07.330Z,81.88
2018-07-06T22:19:35.007Z,81.64
2018-07-06T22:22:02.792Z,82.52
2018-07-06T22:24:30.506Z,81.91
2018-07-06T22:26:58.186Z,81.29
2018-07-06T22:29:25.886Z,81.46
2018-07-06T22:31:53.577Z,81.32
2018-07-06T22:34:21.351Z,81.40
2018-07-06T22:36:49.095Z,81.80
2018-07-06T22:39:16.798Z,82.00
2018-07-06T22:41:44.562Z,82.15
2018-07-06T22:44:12.287Z,82.66
2018-07-06T22:46:40.455Z,82.42
2018-07-06T22:49:08.203Z,82.44
2018-07-06T22:51:35.965Z,82.32
2018-07-06T22:54:03.862Z,82.34
2018-07-06T22:56:31.583Z,83.08
2018-07-06T22:58:59.354Z,83.20
2018-07-06T23:01:27.217Z,82.80
2018-07-06T23:03:54.992Z,81.95
2018-07-06T23:06:22.781Z,81.98
2018-07-06T23:08:50.479Z,82.44
2018-07-06T23:11:18.398Z,81.80
2018-07-06T23:13:46.106Z,82.15
2018-07-06T23:16:13.917Z,82.05
2018-07-06T23:18:41.653Z,82.21
2018-07-06T23:21:09.503Z,82.72
2018-07-06T23:23:37.290Z,82.75
2018-07-06T23:26:05.039Z,82.84
2018-07-06T23:28:32.797Z,82.93
2018-07-06T23:31:00.485Z,83.13
2018-07-06T23:33:28.298Z,82.91
2018-07-06T23:35:56.032Z,83.26
2018-07-06T23:38:23.751Z,83.07
2018-07-06T23:40:51.486Z,83.41
2018-07-06T23:43:19.277Z,83.42
2018-07-06T23:45:47.090Z,83.41
2018-07-06T23:48:14.845Z,83.27
2018-07-06T23:50:42.523Z,83.99
2018-07-06T23:53:10.268Z,83.56
2018-07-06T23:55:37.950Z,83.78
2018-07-06T23:58:05.698Z,83.54
